createdAt,value
2023-02-22T00:00:54.606Z,98740.31
2023-02-22T00:04:12.766Z,98745.91
2023-02-22T00:07:29.006Z,98740.84
2023-02-22T00:10:45.590Z,98747.77
2023-02-22T00:14:03.291Z,98741.00
2023-02-22T00:17:21.276Z,98747.24
2023-02-22T00:20:39.666Z,98748.38
2023-02-22T00:23:57.540Z,98751.63
2023-02-22T00:27:13.378Z,98752.45
2023-02-22T00:30:34.464Z,98754.95
2023-02-22T00:33:51.112Z,98756.58
2023-02-22T00:37:07.678Z,98763.21
2023-02-22T00:40:28.093Z,98760.58
2023-02-22T00:43:44.745Z,98759.08
2023-02-22T00:47:00.849Z,98761.84
2023-02-22T00:50:18.829Z,98763.67
2023-02-22T00:53:35.787Z,98768.94
2023-02-22T00:56:51.851Z,98771.41
2023-02-22T01:00:11.334Z,98767.11
2023-02-22T01:03:28.911Z,98768.94
2023-02-22T01:06:45.418Z,98768.73
2023-02-22T01:10:03.039Z,98766.10
2023-02-22T01:13:20.701Z,98772.19
2023-02-22T01:16:36.739Z,98774.00
2023-02-22T01:19:54.004Z,98766.91
2023-02-22T01:26:39.105Z,98775.95
2023-02-22T01:29:57.786Z,98777.02
2023-02-22T01:33:17.332Z,98767.98
2023-02-22T01:36:33.363Z,98773.32
2023-02-22T01:43:10.084Z,98767.60
2023-02-22T01:46:35.341Z,98766.91
2023-02-22T01:49:54.986Z,98772.34
2023-02-22T01:57:40.434Z,98768.14
2023-02-22T02:00:56.635Z,98775.23
2023-02-22T02:04:17.719Z,98764.53
2023-02-22T02:07:34.604Z,98756.80
2023-02-22T02:10:51.908Z,98754.69
2023-02-22T02:14:09.273Z,98755.82
2023-02-22T02:17:28.499Z,98762.35
2023-02-22T02:20:51.729Z,98760.85
2023-02-22T02:24:50.671Z,98757.30
2023-02-22T02:29:03.864Z,98762.41
2023-02-22T02:32:50.879Z,98760.38
2023-02-22T02:36:12.910Z,98759.80
2023-02-22T02:42:48.386Z,98764.75
2023-02-22T02:46:09.989Z,98768.67
2023-02-22T02:49:33.214Z,98772.65
2023-02-22T02:52:52.608Z,98774.47
2023-02-22T02:56:10.259Z,98783.05
2023-02-22T02:59:43.511Z,98772.97
2023-02-22T03:03:13.530Z,98776.25
2023-02-22T03:06:56.543Z,98778.59
2023-02-22T03:10:31.003Z,98773.17
2023-02-22T03:13:56.036Z,98777.47
2023-02-22T03:17:19.884Z,98781.44
2023-02-22T03:20:44.330Z,98786.86
2023-02-22T03:24:08.594Z,98783.42
2023-02-22T03:27:28.871Z,98786.18
2023-02-22T03:30:50.303Z,98793.47
2023-02-22T03:34:10.423Z,98795.00
2023-02-22T03:37:30.870Z,98788.08
2023-02-22T03:40:51.838Z,98784.76
2023-02-22T03:44:12.136Z,98793.27
2023-02-22T03:47:34.170Z,98785.52
2023-02-22T03:50:52.223Z,98790.70
2023-02-22T03:54:09.443Z,98795.16
2023-02-22T03:57:30.502Z,98799.45
2023-02-22T04:00:48.495Z,98793.13
2023-02-22T04:04:04.543Z,98801.98
2023-02-22T04:07:21.427Z,98801.45
2023-02-22T04:10:49.964Z,98795.38
2023-02-22T04:14:07.733Z,98798.61
2023-02-22T04:17:23.803Z,98803.40
2023-02-22T04:20:40.239Z,98806.19
2023-02-22T04:24:00.784Z,98798.83
2023-02-22T04:27:16.771Z,98801.61
2023-02-22T04:30:33.549Z,98803.40
2023-02-22T04:33:51.192Z,98800.11
2023-02-22T04:37:08.979Z,98798.67
2023-02-22T04:40:26.780Z,98801.52
2023-02-22T04:43:42.894Z,98801.52
2023-02-22T04:47:04.461Z,98796.95
2023-02-22T04:50:21.946Z,98798.23
2023-02-22T04:53:37.986Z,98808.75
2023-02-22T04:56:54.408Z,98806.84
2023-02-22T05:00:12.563Z,98805.92
2023-02-22T05:03:28.730Z,98806.89
2023-02-22T05:06:44.785Z,98792.02
2023-02-22T05:10:02.823Z,98809.14
2023-02-22T05:13:19.181Z,98800.28
2023-02-22T05:16:36.636Z,98800.28
2023-02-22T05:19:53.007Z,98808.17
2023-02-22T05:23:10.979Z,98804.19
2023-02-22T05:26:27.253Z,98807.79
2023-02-22T05:29:43.267Z,98812.52
2023-02-22T05:33:00.119Z,98815.45
2023-02-22T05:36:17.623Z,98817.23
2023-02-22T05:42:49.307Z,98825.86
2023-02-22T05:46:05.247Z,98818.13
2023-02-22T05:49:21.337Z,98826.67
2023-02-22T05:52:37.599Z,98831.50
2023-02-22T05:55:56.747Z,98833.98
2023-02-22T05:59:12.892Z,98835.41
2023-02-22T06:02:29.034Z,98841.88
2023-02-22T06:05:45.824Z,98847.67
2023-02-22T06:09:02.178Z,98858.88
2023-02-22T06:12:19.186Z,98858.88
2023-02-22T06:15:37.356Z,98865.38
2023-02-22T06:18:53.644Z,98864.09
2023-02-22T06:22:09.838Z,98863.71
2023-02-22T06:25:29.616Z,98877.41
2023-02-22T06:28:45.804Z,98877.83
2023-02-22T06:32:02.109Z,98873.27
2023-02-22T06:35:19.866Z,98879.50
2023-02-22T06:38:36.329Z,98887.38
2023-02-22T06:41:55.548Z,98884.75
2023-02-22T06:45:12.775Z,98887.11
2023-02-22T06:48:32.194Z,98884.75
2023-02-22T06:51:48.436Z,98889.13
2023-02-22T06:55:05.197Z,98892.02
2023-02-22T06:58:21.451Z,98898.91
2023-02-22T07:01:38.294Z,98892.69
2023-02-22T07:04:56.665Z,98899.61
2023-02-22T07:08:15.905Z,98894.45
2023-02-22T07:14:47.417Z,98896.14
2023-02-22T07:18:04.019Z,98893.20
2023-02-22T07:21:20.273Z,98895.76
2023-02-22T07:27:55.110Z,98903.66
2023-02-22T07:31:11.544Z,98903.34
2023-02-22T07:34:27.943Z,98906.67
2023-02-22T07:37:44.107Z,98913.11
2023-02-22T07:41:00.526Z,98908.33
2023-02-22T07:44:16.711Z,98900.06
2023-02-22T07:47:33.180Z,98902.64
2023-02-22T07:50:50.244Z,98909.97
2023-02-22T07:54:06.619Z,98902.45
2023-02-22T07:57:23.267Z,98901.69
2023-02-22T08:00:41.849Z,98906.36
2023-02-22T08:03:58.502Z,98912.38
2023-02-22T08:07:14.789Z,98918.34
2023-02-22T08:10:32.966Z,98913.97
2023-02-22T08:13:49.757Z,98910.73
2023-02-22T08:17:07.791Z,98917.35
2023-02-22T08:20:26.360Z,98914.80
2023-02-22T08:23:42.566Z,98919.59
2023-02-22T08:26:59.019Z,98914.03
2023-02-22T08:30:22.521Z,98921.38
2023-02-22T08:33:38.701Z,98921.61
2023-02-22T08:36:54.826Z,98927.69
2023-02-22T08:40:13.903Z,98926.46
2023-02-22T08:43:30.145Z,98925.03
2023-02-22T08:46:46.410Z,98924.05
2023-02-22T08:50:02.869Z,98924.25
2023-02-22T08:53:21.000Z,98920.02
2023-02-22T08:56:37.454Z,98930.92
2023-02-22T08:59:54.256Z,98934.70
2023-02-22T09:03:12.746Z,98927.14
2023-02-22T09:06:29.482Z,98936.09
2023-02-22T09:09:45.794Z,98934.19
2023-02-22T09:13:03.224Z,98932.94
2023-02-22T09:16:20.140Z,98940.06
2023-02-22T09:19:42.336Z,98943.49
2023-02-22T09:23:00.267Z,98938.31
2023-02-22T09:26:19.972Z,98948.25
2023-02-22T09:29:36.990Z,98940.34
2023-02-22T09:32:53.757Z,98941.02
2023-02-22T09:36:10.729Z,98942.02
2023-02-22T09:46:12.450Z,98935.38
2023-02-22T09:49:35.485Z,98936.34
2023-02-22T09:52:59.110Z,98931.02
2023-02-22T09:56:20.245Z,98939.16
2023-02-22T09:59:42.054Z,98943.63
2023-02-22T10:03:06.988Z,98943.43
2023-02-22T10:06:27.918Z,98935.50
2023-02-22T10:09:47.534Z,98943.44
2023-02-22T10:13:06.773Z,98927.47
2023-02-22T10:16:29.228Z,98928.57
2023-02-22T10:19:54.871Z,98922.89
2023-02-22T10:23:21.849Z,98917.60
2023-02-22T10:26:42.195Z,98924.75
2023-02-22T10:30:10.068Z,98923.86
2023-02-22T10:33:27.192Z,98926.08
2023-02-22T10:36:44.166Z,98917.50
2023-02-22T10:43:17.525Z,98918.01
2023-02-22T10:46:36.545Z,98924.23
2023-02-22T10:49:57.820Z,98918.66
2023-02-22T10:53:16.172Z,98918.45
2023-02-22T10:56:35.313Z,98917.12
2023-02-22T10:59:52.981Z,98915.19
2023-02-22T11:03:14.917Z,98917.66
2023-02-22T11:06:34.141Z,98919.95
2023-02-22T11:10:01.595Z,98913.14
2023-02-22T11:13:34.104Z,98909.86
2023-02-22T11:16:55.198Z,98919.28
2023-02-22T11:20:13.442Z,98911.17
2023-02-22T11:23:32.030Z,98911.84
2023-02-22T11:30:16.666Z,98908.59
2023-02-22T11:33:35.332Z,98903.77
2023-02-22T11:36:57.410Z,98900.48
2023-02-22T11:43:32.147Z,98904.60
2023-02-22T11:46:51.121Z,98913.70
2023-02-22T11:50:07.886Z,98913.05
2023-02-22T11:53:35.376Z,98903.61
2023-02-22T11:56:56.476Z,98910.23
2023-02-22T12:00:25.647Z,98901.81
2023-02-22T12:04:06.137Z,98894.87
2023-02-22T12:07:57.149Z,98889.55
2023-02-22T12:14:39.296Z,98892.72
2023-02-22T12:18:03.405Z,98890.71
2023-02-22T12:21:23.557Z,98893.19
2023-02-22T12:24:45.506Z,98885.10
2023-02-22T12:28:24.305Z,98881.13
2023-02-22T12:31:41.409Z,98884.27
2023-02-22T12:35:28.814Z,98873.67
2023-02-22T12:38:58.022Z,98873.85
2023-02-22T12:43:00.880Z,98879.17
2023-02-22T12:46:31.317Z,98876.85
2023-02-22T12:50:17.330Z,98872.72
2023-02-22T12:53:56.154Z,98879.50
2023-02-22T12:57:31.196Z,98882.78
2023-02-22T13:00:57.660Z,98877.66
2023-02-22T13:04:44.795Z,98875.52
2023-02-22T13:08:16.433Z,98876.50
2023-02-22T13:11:41.041Z,98866.77
2023-02-22T13:15:10.012Z,98872.90
2023-02-22T13:18:59.538Z,98878.01
2023-02-22T13:22:26.191Z,98875.05
2023-02-22T13:26:04.584Z,98882.16
2023-02-22T13:29:32.928Z,98882.97
2023-02-22T13:33:16.999Z,98878.36
2023-02-22T13:36:53.240Z,98880.45
2023-02-22T14:03:49.449Z,98888.21
2023-02-22T14:07:08.218Z,98875.67
2023-02-22T14:10:58.401Z,98879.30
2023-02-22T14:14:27.240Z,98880.28
2023-02-22T14:17:45.637Z,98885.91
2023-02-22T14:21:21.209Z,98881.92
2023-02-22T14:24:48.433Z,98882.74
2023-02-22T14:28:05.720Z,98886.20
2023-02-22T14:31:35.863Z,98882.71
2023-02-22T14:35:03.382Z,98879.59
2023-02-22T14:38:25.917Z,98893.27
2023-02-22T14:41:47.086Z,98888.36
2023-02-22T14:45:12.852Z,98889.45
2023-02-22T14:49:04.895Z,98888.47
2023-02-22T14:52:37.529Z,98885.02
2023-02-22T14:55:58.700Z,98888.47
2023-02-22T14:59:24.955Z,98888.98
2023-02-22T15:02:47.481Z,98888.30
2023-02-22T15:06:06.640Z,98882.17
2023-02-22T15:09:31.127Z,98887.79
2023-02-22T15:12:51.492Z,98886.30
2023-02-22T15:16:10.271Z,98886.59
2023-02-22T15:19:30.452Z,98890.21
2023-02-22T15:22:47.228Z,98882.30
2023-02-22T15:26:04.061Z,98891.70
2023-02-22T15:29:24.417Z,98887.23
2023-02-22T15:33:02.695Z,98885.58
2023-02-22T15:36:10.975Z,98891.02
2023-02-22T15:39:35.130Z,98888.55
2023-02-22T15:42:59.196Z,98892.17
2023-02-22T15:46:16.016Z,98887.23
2023-02-22T15:49:35.429Z,98891.14
2023-02-22T15:52:54.422Z,98885.85
2023-02-22T15:56:15.611Z,98895.05
2023-02-22T15:59:36.562Z,98889.13
2023-02-22T16:02:54.214Z,98892.27
2023-02-22T16:06:15.877Z,98891.76
2023-02-22T16:09:36.133Z,98898.94
2023-02-22T16:12:53.568Z,98896.11
2023-02-22T16:16:13.294Z,98897.55
2023-02-22T16:19:47.024Z,98903.42
2023-02-22T16:23:07.342Z,98901.40
2023-02-22T16:26:36.823Z,98900.45
2023-02-22T16:30:18.624Z,98909.33
2023-02-22T16:33:24.295Z,98912.13
2023-02-22T16:36:57.103Z,98904.54
2023-02-22T16:40:15.676Z,98905.28
2023-02-22T16:43:36.433Z,98915.24
2023-02-22T16:46:53.017Z,98908.84
2023-02-22T16:50:09.819Z,98914.48
2023-02-22T16:53:29.122Z,98908.44
2023-02-22T16:56:46.960Z,98918.24
2023-02-22T17:00:03.454Z,98911.47
2023-02-22T17:04:02.410Z,98919.09
2023-02-22T17:07:19.215Z,98927.28
2023-02-22T17:10:40.303Z,98926.16
2023-02-22T17:14:01.776Z,98932.23
2023-02-22T17:17:23.705Z,98930.66
2023-02-22T17:20:42.295Z,98932.84
2023-02-22T17:23:58.833Z,98928.02
2023-02-22T17:27:17.106Z,98922.78
2023-02-22T17:30:37.963Z,98929.84
2023-02-22T17:33:56.552Z,98926.68
2023-02-22T17:37:13.166Z,98921.78
2023-02-22T17:40:29.634Z,98919.53
2023-02-22T17:43:46.011Z,98926.45
2023-02-22T17:47:02.503Z,98925.86
2023-02-22T17:50:24.070Z,98924.67
2023-02-22T17:53:40.791Z,98927.66
2023-02-22T17:56:58.758Z,98930.06
2023-02-22T18:00:22.819Z,98918.41
2023-02-22T18:03:40.985Z,98919.53
2023-02-22T18:06:58.089Z,98923.02
2023-02-22T18:10:19.650Z,98922.94
2023-02-22T18:13:36.950Z,98921.23
2023-02-22T18:16:54.676Z,98921.48
2023-02-22T18:20:19.694Z,98924.86
2023-02-22T18:23:39.111Z,98924.27
2023-02-22T18:26:55.800Z,98930.44
2023-02-22T18:30:15.384Z,98925.52
2023-02-22T18:33:32.093Z,98920.31
2023-02-22T18:36:49.479Z,98921.28
2023-02-22T18:40:08.477Z,98915.86
2023-02-22T18:43:27.658Z,98921.97
2023-02-22T18:46:44.239Z,98914.08
2023-02-22T18:50:00.941Z,98917.89
2023-02-22T18:53:19.209Z,98917.94
2023-02-22T18:56:37.355Z,98913.26
2023-02-22T18:59:55.748Z,98920.23
2023-02-22T19:03:12.564Z,98913.84
2023-02-22T19:06:29.782Z,98917.98
2023-02-22T19:09:46.766Z,98919.92
2023-02-22T19:13:03.528Z,98916.36
2023-02-22T19:16:22.285Z,98915.98
2023-02-22T19:19:39.957Z,98922.39
2023-02-22T19:22:56.862Z,98920.73
2023-02-22T19:26:13.851Z,98921.45
2023-02-22T19:29:32.320Z,98930.44
2023-02-22T19:32:49.477Z,98935.97
2023-02-22T19:36:09.392Z,98930.46
2023-02-22T19:39:27.858Z,98932.52
2023-02-22T19:42:44.190Z,98924.08
2023-02-22T19:46:00.494Z,98939.16
2023-02-22T19:49:17.287Z,98927.44
2023-02-22T19:52:33.786Z,98926.08
2023-02-22T19:55:50.482Z,98927.04
2023-02-22T19:59:12.517Z,98926.77
2023-02-22T20:02:29.234Z,98930.41
2023-02-22T20:05:50.476Z,98932.90
2023-02-22T20:09:07.934Z,98940.24
2023-02-22T20:12:24.300Z,98932.78
2023-02-22T20:15:41.027Z,98923.89
2023-02-22T20:18:58.268Z,98925.64
2023-02-22T20:22:14.677Z,98919.50
2023-02-22T20:25:31.145Z,98921.94
2023-02-22T20:28:47.612Z,98921.04
2023-02-22T20:32:04.319Z,98928.74
2023-02-22T20:35:21.081Z,98944.52
2023-02-22T20:38:37.335Z,98944.30
2023-02-22T20:41:55.335Z,98943.77
2023-02-22T20:45:12.390Z,98943.06
2023-02-22T20:48:28.787Z,98953.69
2023-02-22T20:51:45.649Z,98950.50
2023-02-22T20:55:03.839Z,98952.41
2023-02-22T20:58:20.772Z,98946.44
2023-02-22T21:01:38.879Z,98946.00
2023-02-22T21:04:55.738Z,98955.63
2023-02-22T21:08:12.985Z,98949.81
2023-02-22T21:11:32.794Z,98943.05
2023-02-22T21:14:50.043Z,98951.05
2023-02-22T21:18:06.238Z,98949.89
2023-02-22T21:21:22.879Z,98959.94
2023-02-22T21:24:39.386Z,98950.98
2023-02-22T21:27:56.010Z,98956.73
2023-02-22T21:31:17.588Z,98952.59
2023-02-22T21:34:34.333Z,98965.95
2023-02-22T21:37:50.442Z,98959.63
2023-02-22T21:41:06.697Z,98960.14
2023-02-22T21:44:24.873Z,98952.52
2023-02-22T21:47:41.147Z,98959.69
2023-02-22T21:50:57.531Z,98961.73
2023-02-22T21:54:17.543Z,98950.36
2023-02-22T21:57:33.954Z,98956.78
2023-02-22T22:00:50.267Z,98964.06
2023-02-22T22:04:10.493Z,98965.02
2023-02-22T22:07:26.621Z,98961.34
2023-02-22T22:10:43.836Z,98960.63
2023-02-22T22:14:01.945Z,98953.85
2023-02-22T22:17:18.875Z,98956.60
2023-02-22T22:20:36.965Z,98961.25
2023-02-22T22:23:55.070Z,98952.95
2023-02-22T22:27:13.109Z,98959.37
2023-02-22T22:30:31.300Z,98961.40
2023-02-22T22:33:49.479Z,98961.40
2023-02-22T22:37:05.781Z,98964.41
2023-02-22T22:40:25.997Z,98954.89
2023-02-22T22:43:44.626Z,98954.44
2023-02-22T22:47:00.913Z,98956.83
2023-02-22T22:50:25.805Z,98962.19
2023-02-22T22:53:44.653Z,98954.58
2023-02-22T22:57:00.756Z,98956.14
2023-02-22T23:00:33.744Z,98961.99
2023-02-22T23:03:53.396Z,98954.96
2023-02-22T23:07:10.608Z,98953.81
2023-02-22T23:10:27.905Z,98955.70
2023-02-22T23:13:44.399Z,98960.60
2023-02-22T23:17:04.006Z,98959.06
2023-02-22T23:20:19.411Z,98956.54
2023-02-22T23:23:35.299Z,98957.75
2023-02-22T23:26:53.690Z,98961.56
2023-02-22T23:30:11.949Z,98943.95
2023-02-22T23:33:28.304Z,98945.29
2023-02-22T23:36:47.376Z,98942.42
2023-02-22T23:40:05.273Z,98945.17
2023-02-22T23:43:21.576Z,98946.58
2023-02-22T23:46:38.167Z,98942.55
2023-02-22T23:49:55.337Z,98941.02
2023-02-22T23:53:13.610Z,98942.08
2023-02-22T23:56:32.273Z,98937.33
2023-02-22T23:59:48.624Z,98945.38
